createdAt,value
2022-09-23T10:36:22.654Z,952.34
2022-09-23T10:40:55.047Z,952.30
2022-09-23T10:41:05.048Z,952.28
2022-09-23T10:41:14.945Z,952.28
2022-09-23T10:42:54.230Z,952.26
2022-09-23T10:43:04.221Z,952.26
2022-09-23T10:43:14.214Z,952.28
2022-09-23T10:43:24.216Z,952.27
2022-09-23T10:43:34.219Z,952.27
2022-09-23T10:43:44.234Z,952.27
2022-09-23T10:45:54.751Z,952.25
2022-09-23T10:46:04.746Z,952.24
2022-09-23T10:46:14.730Z,952.26
2022-09-23T10:46:24.734Z,952.25
2022-09-23T10:46:34.743Z,952.25
2022-09-23T10:46:44.722Z,952.24
2022-09-23T10:46:54.681Z,952.23
2022-09-23T10:47:04.682Z,952.23
2022-09-23T10:58:20.593Z,952.19
2022-09-23T11:02:28.585Z,952.15
2022-09-23T11:02:38.551Z,952.15
2022-09-23T11:02:48.564Z,952.15
2022-09-23T11:02:58.580Z,952.14
2022-09-23T11:03:08.554Z,952.14
2022-09-23T11:03:18.563Z,952.14
2022-09-23T11:03:28.556Z,952.13
2022-09-23T11:03:38.559Z,952.14
2022-09-23T11:03:48.558Z,952.13
2022-09-23T11:03:58.658Z,952.12
2022-09-23T11:04:08.970Z,952.14
2022-09-23T11:04:18.770Z,952.14
2022-09-23T11:04:28.681Z,952.14
2022-09-23T11:04:38.588Z,952.14
2022-09-23T11:04:48.608Z,952.15
2022-09-23T11:04:58.590Z,952.14
2022-09-23T11:05:08.618Z,952.15
2022-09-23T11:07:07.903Z,952.17
2022-09-23T11:07:17.891Z,952.17
2022-09-23T11:07:27.927Z,952.14
2022-09-23T11:07:37.885Z,952.16
2022-09-23T11:07:47.885Z,952.15
2022-09-23T11:07:57.916Z,952.14
2022-09-23T11:09:44.888Z,952.14
2022-09-23T11:11:43.155Z,952.13
2022-09-23T11:14:02.359Z,952.11
2022-09-23T11:15:18.764Z,952.11
2022-09-23T11:15:28.750Z,952.10
2022-09-23T11:18:53.179Z,951.98
2022-09-23T11:19:03.178Z,952.02
2022-09-23T11:19:30.421Z,952.03
2022-09-23T11:19:30.715Z,952.03
2022-09-23T11:19:45.324Z,952.08
2022-09-23T11:19:50.714Z,952.07
2022-09-23T11:21:05.730Z,952.02
2022-09-23T11:21:15.723Z,951.99
2022-09-23T11:21:25.715Z,952.02
2022-09-23T11:21:35.714Z,952.02
2022-09-23T11:21:45.722Z,951.99
2022-09-23T11:23:25.881Z,951.97
2022-09-23T11:23:35.865Z,951.99
2022-09-23T11:23:45.868Z,951.99
2022-09-23T11:26:44.503Z,951.90
2022-09-23T11:26:54.487Z,951.90
2022-09-23T11:33:09.731Z,951.82
2022-09-23T11:34:35.196Z,951.77
2022-09-23T11:34:45.199Z,951.76
2022-09-23T11:34:55.252Z,951.76
2022-09-23T11:35:05.179Z,951.75
2022-09-23T11:35:15.182Z,951.75
2022-09-23T11:35:25.187Z,951.75
2022-09-23T11:35:35.189Z,951.75
2022-09-23T11:35:45.213Z,951.76
2022-09-23T11:35:55.194Z,951.77
2022-09-23T11:36:05.186Z,951.77
2022-09-23T11:37:21.615Z,951.76
2022-09-23T11:37:31.603Z,951.74
2022-09-23T11:37:41.592Z,951.73
2022-09-23T11:37:51.591Z,951.75
2022-09-23T11:38:01.592Z,951.75
2022-09-23T11:39:31.952Z,951.75
2022-09-23T11:40:48.400Z,951.66
2022-09-23T11:40:58.373Z,951.66
2022-09-23T11:41:08.383Z,951.67
2022-09-23T11:41:18.335Z,951.69
2022-09-23T11:41:28.337Z,951.68
2022-09-23T11:41:38.363Z,951.72
2022-09-23T11:41:48.335Z,951.69
2022-09-23T11:41:58.341Z,951.68
2022-09-23T11:42:08.336Z,951.69
2022-09-23T11:42:18.340Z,951.70
2022-09-23T11:42:28.348Z,951.68
2022-09-23T11:42:38.341Z,951.68
2022-09-23T11:42:48.343Z,951.67
2022-09-23T11:44:10.699Z,951.65
2022-09-23T11:44:20.699Z,951.66
2022-09-23T11:44:30.688Z,951.62
2022-09-23T11:44:40.681Z,951.65
2022-09-23T11:44:50.702Z,951.63
2022-09-23T11:45:00.682Z,951.53
2022-09-23T11:45:10.693Z,951.58
2022-09-23T11:45:20.702Z,951.56
2022-09-23T11:45:30.754Z,951.57
2022-09-23T11:45:40.718Z,951.59
2022-09-23T11:45:50.744Z,951.61
2022-09-23T11:46:00.754Z,951.61
2022-09-23T11:46:10.738Z,951.63
2022-09-23T11:46:20.740Z,951.65
2022-09-23T11:46:30.814Z,951.63
2022-09-23T11:46:40.691Z,951.61
2022-09-23T11:46:50.697Z,951.62
2022-09-23T11:48:07.509Z,951.66
2022-09-23T11:48:17.500Z,951.62
2022-09-23T11:48:27.496Z,951.62
2022-09-23T11:48:37.497Z,951.59
2022-09-23T11:48:47.503Z,951.58
2022-09-23T11:48:57.498Z,951.59
2022-09-23T11:49:07.498Z,951.60
2022-09-23T11:49:17.500Z,951.59
2022-09-23T11:49:27.502Z,951.59
2022-09-23T11:49:37.503Z,951.59
2022-09-23T11:49:47.505Z,951.57
2022-09-23T11:49:57.521Z,951.59
2022-09-23T11:50:07.502Z,951.58
2022-09-23T11:50:17.508Z,951.56
2022-09-23T11:50:27.507Z,951.53
2022-09-23T11:50:37.517Z,951.52
2022-09-23T11:50:47.509Z,951.57
2022-09-23T11:50:57.505Z,951.59
2022-09-23T11:51:07.506Z,951.59
2022-09-23T11:51:17.507Z,951.59
2022-09-23T11:51:27.555Z,951.56
2022-09-23T11:51:37.510Z,951.55
2022-09-23T11:51:47.511Z,951.56
2022-09-23T11:51:57.507Z,951.54
2022-09-23T11:52:07.509Z,951.55
2022-09-23T11:53:29.876Z,951.50
2022-09-23T11:53:39.855Z,951.50
2022-09-23T11:53:49.872Z,951.51
2022-09-23T11:53:59.967Z,951.50
2022-09-23T11:54:09.913Z,951.51
2022-09-23T11:54:20.823Z,951.50
2022-09-23T11:54:29.853Z,951.49
2022-09-23T11:54:51.529Z,951.48
2022-09-23T11:54:51.804Z,951.45
2022-09-23T11:55:04.420Z,951.47
2022-09-23T11:55:21.550Z,951.47
2022-09-23T11:55:23.407Z,951.46
2022-09-23T11:55:31.795Z,951.45
2022-09-23T11:55:53.564Z,951.45
2022-09-23T11:55:57.906Z,951.43
2022-09-23T11:56:02.799Z,951.46
2022-09-23T11:56:11.961Z,951.44
2022-09-23T11:56:31.945Z,951.45
2022-09-23T11:56:35.859Z,951.43
2022-09-23T11:56:44.672Z,951.45
2022-09-23T11:56:51.801Z,951.44
2022-09-23T11:57:01.804Z,951.41
2022-09-23T11:57:11.804Z,951.40
2022-09-23T11:57:21.802Z,951.40
2022-09-23T11:57:42.514Z,951.41
2022-09-23T11:57:49.038Z,951.39
2022-09-23T11:57:52.806Z,951.41
2022-09-23T11:58:01.856Z,951.41
2022-09-23T11:58:23.408Z,951.42
2022-09-23T11:58:25.950Z,951.43
2022-09-23T11:58:31.862Z,951.41
2022-09-23T11:58:43.258Z,951.42
2022-09-23T11:58:55.692Z,951.43
2022-09-23T11:59:02.880Z,951.42
2022-09-23T11:59:12.064Z,951.41
2022-09-23T11:59:31.706Z,951.40
2022-09-23T11:59:40.032Z,951.41
2022-09-23T11:59:42.882Z,951.43
2022-09-23T12:01:43.100Z,951.42
2022-09-23T12:01:50.025Z,951.40
2022-09-23T12:02:03.775Z,951.38
2022-09-23T12:03:21.008Z,951.42
2022-09-23T12:03:41.626Z,951.41
2022-09-23T12:03:44.703Z,951.42
2022-09-23T12:03:50.619Z,951.41
2022-09-23T12:04:10.273Z,951.38
2022-09-23T12:04:20.017Z,951.38
2022-09-23T12:04:21.843Z,951.39
2022-09-23T12:04:30.947Z,951.38
2022-09-23T12:04:52.911Z,951.37
2022-09-23T12:09:13.541Z,951.38
2022-09-23T12:09:36.004Z,951.41
2022-09-23T12:09:57.214Z,951.43
2022-09-23T12:09:58.440Z,951.44
2022-09-23T12:09:59.834Z,951.41
2022-09-23T12:10:03.552Z,951.39
2022-09-23T12:10:13.531Z,951.32
2022-09-23T12:10:23.540Z,951.37
2022-09-23T12:10:33.575Z,951.39
2022-09-23T12:10:43.531Z,951.38
2022-09-23T12:10:53.531Z,951.38
2022-09-23T12:11:03.540Z,951.33
2022-09-23T12:11:13.542Z,951.36
2022-09-23T12:11:23.544Z,951.36
2022-09-23T12:12:43.992Z,951.38
2022-09-23T12:12:53.958Z,951.39
2022-09-23T12:13:03.961Z,951.40
2022-09-23T12:13:13.959Z,951.40
2022-09-23T12:13:23.962Z,951.39
2022-09-23T12:13:33.971Z,951.40
2022-09-23T12:13:43.963Z,951.40
2022-09-23T12:13:53.964Z,951.41
2022-09-23T12:15:10.887Z,951.44
2022-09-23T12:15:20.863Z,951.47
2022-09-23T12:16:39.229Z,951.45
2022-09-23T12:16:49.270Z,951.44
2022-09-23T12:16:59.305Z,951.43
2022-09-23T12:17:09.190Z,951.41
2022-09-23T12:17:19.187Z,951.41
2022-09-23T12:17:29.203Z,951.44
2022-09-23T12:17:39.192Z,951.41
2022-09-23T12:17:49.191Z,951.39
2022-09-23T12:17:59.191Z,951.38
2022-09-23T12:18:09.192Z,951.40
2022-09-23T12:18:23.024Z,951.39
2022-09-23T12:18:29.201Z,951.39
2022-09-23T12:18:39.196Z,951.41
2022-09-23T12:19:05.892Z,951.38
2022-09-23T12:19:06.183Z,951.38
2022-09-23T12:20:21.203Z,951.41
2022-09-23T12:20:31.179Z,951.40
2022-09-23T12:20:41.182Z,951.41
2022-09-23T12:20:51.178Z,951.39
2022-09-23T12:21:08.671Z,951.39
2022-09-23T12:21:27.134Z,951.38
2022-09-23T12:21:46.194Z,951.39
2022-09-23T12:24:45.792Z,951.38
2022-09-23T12:24:55.098Z,951.37
2022-09-23T12:25:05.107Z,951.37
2022-09-23T12:25:15.104Z,951.37
2022-09-23T12:25:25.104Z,951.38
2022-09-23T12:25:35.115Z,951.38
2022-09-23T12:25:45.102Z,951.38
2022-09-23T12:25:55.112Z,951.39
2022-09-23T12:26:05.123Z,951.39
2022-09-23T12:26:15.103Z,951.38
2022-09-23T12:26:25.108Z,951.38
2022-09-23T12:26:35.110Z,951.37
2022-09-23T12:26:45.106Z,951.37
2022-09-23T12:26:55.109Z,951.37
2022-09-23T12:27:05.106Z,951.34
2022-09-23T12:27:15.108Z,951.37
2022-09-23T12:27:25.108Z,951.37
2022-09-23T12:27:35.122Z,951.34
2022-09-23T12:27:45.109Z,951.31
2022-09-23T12:28:06.787Z,951.34
2022-09-23T12:28:07.111Z,951.37
2022-09-23T12:28:17.073Z,951.38
2022-09-23T12:28:27.082Z,951.37
2022-09-23T12:28:37.073Z,951.35
2022-09-23T12:34:44.801Z,951.33
2022-09-23T12:34:54.735Z,951.34
2022-09-23T12:36:20.490Z,951.26
2022-09-23T12:36:30.474Z,951.24
2022-09-23T12:36:40.474Z,951.28
2022-09-23T12:39:22.544Z,951.30
2022-09-23T12:39:31.878Z,951.31
2022-09-23T12:39:41.882Z,951.32
2022-09-23T12:39:51.894Z,951.27
2022-09-23T12:40:01.902Z,951.28
2022-09-23T12:40:11.994Z,951.31
2022-09-23T12:40:21.942Z,951.25
2022-09-23T12:40:31.951Z,951.25
2022-09-23T12:40:41.930Z,951.21
2022-09-23T12:40:51.916Z,951.21
2022-09-23T12:41:01.887Z,951.23
2022-09-23T12:41:11.894Z,951.29
2022-09-23T12:50:53.156Z,951.21
2022-09-23T12:51:03.133Z,951.21
2022-09-23T12:51:13.136Z,951.23
2022-09-23T12:59:24.637Z,951.19
2022-09-23T12:59:34.629Z,951.20
2022-09-23T12:59:44.620Z,951.17
2022-09-23T13:02:03.681Z,951.13
2022-09-23T13:02:13.591Z,951.12
2022-09-23T13:05:19.971Z,951.12
2022-09-23T13:05:29.969Z,951.15
2022-09-23T13:05:39.957Z,951.12
2022-09-23T13:05:49.955Z,951.09
2022-09-23T13:07:15.605Z,951.09
2022-09-23T13:07:25.601Z,951.08
2022-09-23T13:07:35.588Z,951.08
2022-09-23T13:07:45.588Z,951.09
2022-09-23T13:07:55.600Z,951.12
2022-09-23T13:10:38.080Z,951.08
2022-09-23T13:10:48.047Z,951.07
2022-09-23T13:10:58.045Z,951.06
2022-09-23T13:11:08.052Z,951.05
2022-09-23T13:11:18.068Z,951.04
2022-09-23T13:11:28.046Z,951.04
2022-09-23T13:11:38.063Z,951.04
2022-09-23T13:11:48.075Z,951.04
2022-09-23T13:11:58.047Z,951.03
2022-09-23T13:12:08.079Z,951.04
2022-09-23T13:12:18.055Z,951.03
2022-09-23T13:13:54.091Z,951.02
2022-09-23T13:14:04.293Z,950.99
2022-09-23T13:14:14.076Z,950.98
2022-09-23T13:14:36.087Z,950.98
2022-09-23T13:14:36.356Z,950.99
2022-09-23T13:14:46.370Z,950.99
2022-09-23T13:14:56.362Z,950.98
2022-09-23T13:15:06.380Z,950.98
2022-09-23T13:18:03.971Z,950.99
2022-09-23T13:18:12.999Z,950.99
2022-09-23T13:18:23.007Z,951.03
2022-09-23T13:18:33.001Z,951.01
2022-09-23T13:18:43.001Z,951.00
2022-09-23T13:18:53.018Z,951.00
2022-09-23T13:19:03.007Z,950.99
2022-09-23T13:19:13.005Z,950.98
2022-09-23T13:21:07.392Z,951.00
2022-09-23T13:21:17.396Z,950.98
2022-09-23T13:21:27.377Z,950.99
2022-09-23T13:23:02.197Z,950.97
2022-09-23T13:24:28.522Z,950.96
2022-09-23T13:24:38.514Z,950.97
2022-09-23T13:24:48.505Z,950.97
2022-09-23T13:29:08.879Z,950.87
2022-09-23T13:29:18.860Z,950.86
2022-09-23T13:29:28.856Z,950.86
2022-09-23T13:29:38.859Z,950.86
2022-09-23T13:31:08.355Z,950.87
2022-09-23T13:31:18.346Z,950.86
2022-09-23T13:34:00.766Z,950.84
2022-09-23T13:34:01.081Z,950.83
2022-09-23T13:34:11.876Z,950.83
2022-09-23T13:34:21.050Z,950.85
2022-09-23T13:36:28.363Z,950.83
2022-09-23T13:36:38.369Z,950.84
2022-09-23T13:36:48.347Z,950.84
2022-09-23T13:36:58.346Z,950.83
2022-09-23T13:37:08.349Z,950.83
2022-09-23T13:37:22.184Z,950.83
2022-09-23T13:37:28.397Z,950.83
2022-09-23T13:37:38.350Z,950.82
2022-09-23T13:37:48.352Z,950.82
2022-09-23T13:37:58.438Z,950.82
2022-09-23T13:38:08.352Z,950.81
2022-09-23T13:38:18.353Z,950.81
2022-09-23T13:38:28.354Z,950.81
2022-09-23T13:38:38.356Z,950.82
2022-09-23T13:38:48.375Z,950.80
2022-09-23T13:38:58.359Z,950.80
2022-09-23T13:39:08.360Z,950.81
2022-09-23T13:39:18.358Z,950.80
2022-09-23T13:39:28.361Z,950.78
2022-09-23T13:39:38.359Z,950.79
2022-09-23T13:39:48.480Z,950.78
2022-09-23T13:39:58.366Z,950.78
2022-09-23T13:40:08.540Z,950.78
2022-09-23T13:40:18.399Z,950.78
2022-09-23T13:40:28.459Z,950.78
2022-09-23T13:40:38.427Z,950.77
2022-09-23T13:40:48.497Z,950.77
2022-09-23T13:40:58.462Z,950.77
2022-09-23T13:41:08.365Z,950.78
2022-09-23T13:41:18.365Z,950.80
2022-09-23T13:41:28.369Z,950.78
2022-09-23T13:41:50.115Z,950.78
2022-09-23T13:41:50.398Z,950.78
2022-09-23T13:45:30.244Z,950.76
2022-09-23T13:45:40.268Z,950.75
2022-09-23T13:45:50.276Z,950.76
2022-09-23T13:46:00.365Z,950.77
2022-09-23T13:46:10.322Z,950.77
2022-09-23T13:49:01.304Z,950.74
2022-09-23T13:49:23.334Z,950.74
2022-09-23T13:49:23.626Z,950.74
2022-09-23T13:49:33.616Z,950.74
2022-09-23T13:51:49.092Z,950.71
2022-09-23T13:51:59.085Z,950.68
2022-09-23T13:52:09.077Z,950.71
2022-09-23T13:52:19.076Z,950.71
2022-09-23T13:52:29.083Z,950.70
2022-09-23T13:52:39.079Z,950.70
2022-09-23T13:52:49.078Z,950.69
2022-09-23T13:52:59.080Z,950.67
2022-09-23T13:53:09.082Z,950.67
2022-09-23T13:53:19.143Z,950.69
2022-09-23T13:53:29.083Z,950.69
2022-09-23T13:53:39.090Z,950.68
2022-09-23T13:55:11.242Z,950.66
2022-09-23T13:56:31.639Z,950.65
2022-09-23T13:56:41.653Z,950.65
2022-09-23T13:56:51.624Z,950.66
2022-09-23T13:57:01.623Z,950.63
2022-09-23T13:57:11.639Z,950.64
2022-09-23T13:57:21.627Z,950.65
2022-09-23T13:58:51.853Z,950.66
2022-09-23T13:59:01.852Z,950.64
2022-09-23T14:00:36.086Z,950.65
2022-09-23T14:00:46.138Z,950.59
2022-09-23T14:02:02.493Z,950.63
2022-09-23T14:02:12.534Z,950.63
2022-09-23T14:02:22.491Z,950.64
2022-09-23T14:02:32.531Z,950.63
2022-09-23T14:02:42.530Z,950.65
2022-09-23T14:02:52.457Z,950.62
2022-09-23T14:03:02.487Z,950.62
2022-09-23T14:03:12.469Z,950.64
2022-09-23T14:03:22.458Z,950.64
2022-09-23T14:03:36.492Z,950.64
2022-09-23T14:03:42.460Z,950.65
2022-09-23T14:03:52.460Z,950.64
2022-09-23T14:04:02.651Z,950.65
2022-09-23T14:04:12.464Z,950.65
2022-09-23T14:04:22.477Z,950.65
2022-09-23T14:04:32.473Z,950.66
2022-09-23T14:04:54.040Z,950.66
2022-09-23T14:04:54.310Z,950.65
2022-09-23T14:05:04.311Z,950.66
2022-09-23T14:05:14.313Z,950.64
2022-09-23T14:05:24.312Z,950.65
2022-09-23T14:05:34.314Z,950.64
2022-09-23T14:05:44.316Z,950.65
2022-09-23T14:05:54.318Z,950.65
2022-09-23T14:06:04.355Z,950.65
2022-09-23T14:06:14.318Z,950.64
2022-09-23T14:06:24.314Z,950.64
2022-09-23T14:06:34.315Z,950.64
2022-09-23T14:06:44.313Z,950.64
2022-09-23T14:06:54.362Z,950.63
2022-09-23T14:07:04.316Z,950.62
2022-09-23T14:07:14.314Z,950.62
2022-09-23T14:07:24.316Z,950.63
2022-09-23T14:07:34.318Z,950.61
2022-09-23T14:07:44.316Z,950.60
2022-09-23T14:07:54.332Z,950.60
2022-09-23T14:08:04.322Z,950.60
2022-09-23T14:08:14.324Z,950.61
2022-09-23T14:08:24.325Z,950.61
2022-09-23T14:08:34.320Z,950.62
2022-09-23T14:08:44.324Z,950.59
2022-09-23T14:08:54.359Z,950.57
2022-09-23T14:09:04.323Z,950.55
2022-09-23T14:09:14.324Z,950.59
2022-09-23T14:09:24.326Z,950.60
2022-09-23T14:09:34.328Z,950.59
2022-09-23T14:09:44.329Z,950.58
2022-09-23T14:09:54.330Z,950.58
2022-09-23T14:10:04.332Z,950.59
2022-09-23T14:10:14.339Z,950.60
2022-09-23T14:10:24.336Z,950.58
2022-09-23T14:14:52.015Z,950.52
2022-09-23T14:14:52.303Z,950.51
2022-09-23T14:15:05.288Z,950.52
2022-09-23T14:15:12.305Z,950.52
2022-09-23T14:15:22.299Z,950.51
2022-09-23T14:15:32.292Z,950.51
2022-09-23T14:15:42.309Z,950.51
2022-09-23T14:17:12.639Z,950.49
2022-09-23T14:17:22.624Z,950.47
2022-09-23T14:17:32.624Z,950.47
2022-09-23T14:17:42.628Z,950.47
2022-09-23T14:17:52.627Z,950.47
2022-09-23T14:18:02.626Z,950.48
2022-09-23T14:18:12.649Z,950.48
2022-09-23T14:18:22.636Z,950.48
2022-09-23T14:18:32.632Z,950.47
2022-09-23T14:18:42.629Z,950.47
2022-09-23T14:18:52.698Z,950.48
2022-09-23T14:19:02.632Z,950.49
2022-09-23T14:20:19.040Z,950.49
2022-09-23T14:20:29.031Z,950.48
2022-09-23T14:20:39.026Z,950.47
2022-09-23T14:20:49.031Z,950.48
2022-09-23T14:20:59.032Z,950.48
2022-09-23T14:21:09.033Z,950.49
2022-09-23T14:21:19.031Z,950.47
2022-09-23T14:21:29.041Z,950.47
2022-09-23T14:21:39.033Z,950.48
2022-09-23T14:21:49.034Z,950.49
2022-09-23T14:21:59.036Z,950.49
2022-09-23T14:23:46.937Z,950.47
2022-09-23T14:23:56.910Z,950.47
2022-09-23T14:24:07.045Z,950.47
2022-09-23T14:25:52.845Z,950.44
2022-09-23T14:26:02.828Z,950.45
2022-09-23T14:26:12.825Z,950.44
2022-09-23T14:26:22.861Z,950.43
2022-09-23T14:26:32.830Z,950.43
2022-09-23T14:26:42.835Z,950.44
2022-09-23T14:26:52.830Z,950.44
2022-09-23T14:27:02.836Z,950.44
2022-09-23T14:27:12.836Z,950.44
2022-09-23T14:27:22.836Z,950.44
2022-09-23T14:27:32.839Z,950.44
2022-09-23T14:27:42.843Z,950.44
2022-09-23T14:30:55.188Z,950.40
2022-09-23T14:31:05.187Z,950.40
2022-09-23T14:31:15.242Z,950.39
2022-09-23T14:31:25.195Z,950.38
2022-09-23T14:31:35.226Z,950.38
2022-09-23T14:31:45.243Z,950.38
2022-09-23T14:31:55.211Z,950.38
2022-09-23T14:32:05.181Z,950.38
2022-09-23T14:32:15.189Z,950.38
2022-09-23T14:32:25.182Z,950.39
2022-09-23T14:32:35.196Z,950.40
2022-09-23T14:32:45.179Z,950.40
2022-09-23T14:35:04.656Z,950.40
2022-09-23T14:35:14.642Z,950.40
2022-09-23T14:35:24.635Z,950.38
2022-09-23T14:35:34.633Z,950.37
2022-09-23T14:35:44.640Z,950.40
2022-09-23T14:35:54.634Z,950.41
2022-09-23T14:36:04.642Z,950.40
2022-09-23T14:36:14.638Z,950.41
2022-09-23T14:36:24.639Z,950.41
2022-09-23T14:36:34.643Z,950.41
2022-09-23T14:36:44.639Z,950.41
2022-09-23T14:36:54.651Z,950.42
2022-09-23T14:37:04.643Z,950.42
2022-09-23T14:37:14.641Z,950.40
2022-09-23T14:37:24.642Z,950.37
2022-09-23T14:37:34.648Z,950.37
2022-09-23T14:37:44.643Z,950.38
2022-09-23T14:37:54.645Z,950.39
2022-09-23T14:38:04.657Z,950.39
2022-09-23T14:38:23.741Z,950.40
2022-09-23T14:38:24.643Z,950.40
2022-09-23T14:38:34.659Z,950.40
2022-09-23T14:42:02.876Z,950.39
2022-09-23T14:42:12.864Z,950.38
2022-09-23T14:42:22.848Z,950.38
2022-09-23T14:42:32.853Z,950.37
2022-09-23T14:42:42.972Z,950.38
2022-09-23T14:42:52.851Z,950.39
2022-09-23T14:43:02.851Z,950.39
2022-09-23T14:43:12.852Z,950.38
2022-09-23T14:43:22.855Z,950.38
2022-09-23T14:44:37.868Z,950.35
2022-09-23T14:44:47.862Z,950.35
2022-09-23T14:44:57.851Z,950.35
2022-09-23T14:45:07.852Z,950.35
2022-09-23T14:47:19.947Z,950.35
2022-09-23T14:47:29.908Z,950.35
2022-09-23T14:47:39.901Z,950.35
2022-09-23T14:47:49.900Z,950.34
2022-09-23T14:47:59.910Z,950.34
2022-09-23T14:48:09.899Z,950.33
2022-09-23T14:48:19.897Z,950.34
2022-09-23T14:48:29.902Z,950.35
2022-09-23T14:48:39.900Z,950.34
2022-09-23T14:48:49.903Z,950.34
2022-09-23T14:48:59.947Z,950.33
2022-09-23T14:49:09.919Z,950.32
2022-09-23T14:49:19.900Z,950.31
2022-09-23T14:49:29.905Z,950.29
2022-09-23T14:49:39.906Z,950.30
2022-09-23T14:49:49.912Z,950.31
2022-09-23T14:49:59.908Z,950.32
2022-09-23T14:50:09.908Z,950.32
2022-09-23T14:50:19.919Z,950.32
2022-09-23T14:50:29.913Z,950.32
2022-09-23T14:50:40.106Z,950.32
2022-09-23T14:50:49.919Z,950.32
2022-09-23T14:50:59.929Z,950.32
2022-09-23T14:51:13.204Z,950.32
2022-09-23T14:51:20.920Z,950.32
2022-09-23T14:51:29.915Z,950.33
2022-09-23T14:51:39.965Z,950.33
2022-09-23T14:51:49.917Z,950.32
2022-09-23T14:51:59.919Z,950.32
2022-09-23T14:52:09.928Z,950.32
2022-09-23T14:52:19.918Z,950.32
2022-09-23T14:52:29.923Z,950.32
2022-09-23T14:52:39.927Z,950.31
2022-09-23T14:52:49.926Z,950.32
2022-09-23T14:52:59.930Z,950.32
2022-09-23T14:53:09.932Z,950.32
2022-09-23T14:53:19.928Z,950.32
2022-09-23T14:53:29.942Z,950.31
2022-09-23T14:53:39.931Z,950.32
2022-09-23T14:53:49.929Z,950.31
2022-09-23T14:53:59.928Z,950.32
2022-09-23T14:54:09.934Z,950.33
2022-09-23T14:54:19.929Z,950.33
2022-09-23T14:54:29.931Z,950.33
2022-09-23T14:54:39.935Z,950.33
2022-09-23T14:54:49.938Z,950.32
2022-09-23T14:54:59.944Z,950.32
2022-09-23T14:55:09.953Z,950.32
2022-09-23T14:55:19.939Z,950.32
2022-09-23T14:55:29.946Z,950.32
2022-09-23T14:55:39.944Z,950.32
2022-09-23T14:55:49.948Z,950.32
2022-09-23T14:55:59.939Z,950.31
2022-09-23T14:56:10.055Z,950.31
2022-09-23T14:58:27.525Z,950.32
2022-09-23T14:58:37.513Z,950.32
2022-09-23T14:58:52.026Z,950.32
2022-09-23T14:58:58.531Z,950.33
2022-09-23T15:00:19.878Z,950.27
2022-09-23T15:00:29.862Z,950.29
2022-09-23T15:01:27.409Z,950.31
2022-09-23T15:04:21.888Z,950.27
2022-09-23T15:04:31.861Z,950.27
2022-09-23T15:04:41.878Z,950.27
2022-09-23T15:04:53.137Z,950.27
2022-09-23T15:05:01.864Z,950.26
2022-09-23T15:05:11.875Z,950.26
2022-09-23T15:05:21.863Z,950.24
2022-09-23T15:05:31.869Z,950.25
2022-09-23T15:05:41.871Z,950.27
2022-09-23T15:05:51.871Z,950.27
2022-09-23T15:06:05.144Z,950.27
2022-09-23T15:06:12.866Z,950.27
2022-09-23T15:06:21.869Z,950.27
2022-09-23T15:06:31.871Z,950.27
2022-09-23T15:06:41.872Z,950.26
2022-09-23T15:06:51.873Z,950.27
2022-09-23T15:07:01.879Z,950.26
2022-09-23T15:07:11.871Z,950.27
2022-09-23T15:07:21.877Z,950.26
2022-09-23T15:07:31.872Z,950.26
2022-09-23T15:07:41.877Z,950.26
2022-09-23T15:07:51.873Z,950.26
2022-09-23T15:08:01.878Z,950.26
2022-09-23T15:08:11.876Z,950.27
2022-09-23T15:08:21.880Z,950.27
2022-09-23T15:08:31.875Z,950.26
2022-09-23T15:08:41.876Z,950.27
2022-09-23T15:08:51.876Z,950.26
2022-09-23T15:09:01.891Z,950.26
2022-09-23T15:10:35.185Z,950.26
2022-09-23T15:10:45.166Z,950.26
2022-09-23T15:10:55.171Z,950.26
2022-09-23T15:11:08.115Z,950.26
2022-09-23T15:11:15.165Z,950.25
2022-09-23T15:11:25.184Z,950.26
2022-09-23T15:11:35.177Z,950.27
2022-09-23T15:11:45.173Z,950.27
2022-09-23T15:11:55.166Z,950.26
2022-09-23T15:12:05.169Z,950.26
2022-09-23T15:12:15.175Z,950.26
2022-09-23T15:12:25.177Z,950.26
2022-09-23T15:12:35.173Z,950.25
2022-09-23T15:15:59.750Z,950.23
2022-09-23T15:16:09.688Z,950.23
2022-09-23T15:16:19.723Z,950.23
2022-09-23T15:16:29.741Z,950.24
2022-09-23T15:16:39.743Z,950.24
2022-09-23T15:16:49.765Z,950.22
2022-09-23T15:16:59.709Z,950.22
2022-09-23T15:17:09.666Z,950.21
2022-09-23T15:17:19.667Z,950.21
2022-09-23T15:17:29.671Z,950.21
2022-09-23T15:17:39.666Z,950.21
2022-09-23T15:17:49.749Z,950.21
2022-09-23T15:17:59.671Z,950.22
2022-09-23T15:18:09.669Z,950.20
2022-09-23T15:19:24.682Z,950.19
2022-09-23T15:19:34.672Z,950.19
2022-09-23T15:19:44.670Z,950.18
2022-09-23T15:19:54.668Z,950.19
2022-09-23T15:20:04.848Z,950.20
2022-09-23T15:20:14.667Z,950.20
2022-09-23T15:20:24.677Z,950.20
2022-09-23T15:20:34.673Z,950.20
2022-09-23T15:20:44.687Z,950.20
2022-09-23T15:20:54.676Z,950.19
2022-09-23T15:21:04.672Z,950.21
2022-09-23T15:21:14.689Z,950.21
2022-09-23T15:21:24.673Z,950.20
2022-09-23T15:21:34.678Z,950.19
2022-09-23T15:22:55.101Z,950.17
2022-09-23T15:23:05.102Z,950.17
2022-09-23T15:23:15.073Z,950.16
2022-09-23T15:23:27.762Z,950.16
2022-09-23T15:23:35.084Z,950.16
2022-09-23T15:25:16.389Z,950.16
2022-09-23T15:25:26.387Z,950.13
2022-09-23T15:28:02.623Z,950.17
2022-09-23T15:28:12.598Z,950.17
2022-09-23T15:28:22.585Z,950.17
2022-09-23T15:28:48.455Z,950.18
2022-09-23T15:28:48.729Z,950.19
2022-09-23T15:28:58.735Z,950.19
2022-09-23T15:29:08.732Z,950.18
2022-09-23T15:31:24.739Z,950.15
2022-09-23T15:31:34.722Z,950.14
2022-09-23T15:31:44.722Z,950.13
2022-09-23T15:31:54.728Z,950.12
2022-09-23T15:32:04.723Z,950.11
2022-09-23T15:32:14.677Z,950.11
2022-09-23T15:32:24.677Z,950.12
2022-09-23T15:32:34.684Z,950.10
2022-09-23T15:32:44.692Z,950.12
2022-09-23T15:32:54.680Z,950.12
2022-09-23T15:33:04.682Z,950.11
2022-09-23T15:33:14.685Z,950.12
2022-09-23T15:33:24.682Z,950.12
2022-09-23T15:33:34.687Z,950.12
2022-09-23T15:33:44.708Z,950.13
2022-09-23T15:33:54.682Z,950.13
2022-09-23T15:34:04.683Z,950.13
2022-09-23T15:34:14.681Z,950.14
2022-09-23T15:34:24.691Z,950.13
2022-09-23T15:34:34.694Z,950.14
2022-09-23T15:34:44.687Z,950.13
2022-09-23T15:34:54.710Z,950.14
2022-09-23T15:35:04.687Z,950.14
2022-09-23T15:35:14.689Z,950.14
2022-09-23T15:35:24.718Z,950.15
2022-09-23T15:35:34.695Z,950.15
2022-09-23T15:35:44.689Z,950.16
2022-09-23T15:35:54.695Z,950.15
2022-09-23T15:36:04.690Z,950.15
2022-09-23T15:36:14.701Z,950.15
2022-09-23T15:36:24.709Z,950.15
2022-09-23T15:36:34.710Z,950.16
2022-09-23T15:36:44.692Z,950.16
2022-09-23T15:36:54.707Z,950.16
2022-09-23T15:37:04.698Z,950.16
2022-09-23T15:37:14.698Z,950.16
2022-09-23T15:42:46.046Z,950.13
2022-09-23T15:42:56.059Z,950.12
2022-09-23T15:43:06.028Z,950.11
2022-09-23T15:43:20.212Z,950.11
2022-09-23T15:43:27.049Z,950.11
2022-09-23T15:43:36.035Z,950.11
2022-09-23T15:43:46.033Z,950.11
2022-09-23T15:43:56.035Z,950.11
2022-09-23T15:44:06.141Z,950.11
2022-09-23T15:44:16.035Z,950.10
2022-09-23T15:45:32.829Z,950.08
2022-09-23T15:45:42.905Z,950.08
2022-09-23T15:45:52.838Z,950.08
2022-09-23T15:46:02.795Z,950.07
2022-09-23T15:46:12.793Z,950.08
2022-09-23T15:46:22.742Z,950.07
2022-09-23T15:46:32.744Z,950.07
2022-09-23T15:47:47.768Z,950.07
2022-09-23T15:47:57.743Z,950.07
2022-09-23T15:48:07.785Z,950.07
2022-09-23T15:48:17.741Z,950.08
2022-09-23T15:48:27.744Z,950.08
2022-09-23T15:48:37.746Z,950.08
2022-09-23T15:48:47.745Z,950.07
2022-09-23T15:48:58.783Z,950.07
2022-09-23T15:50:50.523Z,950.08
2022-09-23T15:53:21.930Z,950.13